createdAt,value
2018-06-01T00:00:47.122Z,49.63
2018-06-01T00:03:16.070Z,50.60
2018-06-01T00:05:44.259Z,52.13
2018-06-01T00:08:13.238Z,50.10
2018-06-01T00:10:41.442Z,49.50
2018-06-01T00:13:09.690Z,53.13
2018-06-01T00:15:38.717Z,52.87
2018-06-01T00:18:06.919Z,52.97
2018-06-01T00:20:35.200Z,52.47
2018-06-01T00:23:04.011Z,53.93
2018-06-01T00:25:32.999Z,48.20
2018-06-01T00:28:01.295Z,51.50
2018-06-01T00:30:30.310Z,49.80
2018-06-01T00:33:04.224Z,50.73
2018-06-01T00:35:38.901Z,48.73
2018-06-01T00:38:13.944Z,50.17
2018-06-01T00:40:47.676Z,55.10
2018-06-01T00:43:21.490Z,55.10
2018-06-01T00:45:55.151Z,58.17
2018-06-01T00:48:29.034Z,55.57
2018-06-01T00:51:03.541Z,56.00
2018-06-01T00:53:38.195Z,56.80
2018-06-01T00:56:12.112Z,57.23
2018-06-01T00:58:45.923Z,57.67
2018-06-01T01:01:19.722Z,55.87
2018-06-01T01:03:53.601Z,56.37
2018-06-01T01:06:28.126Z,57.67
2018-06-01T01:09:02.729Z,57.03
2018-06-01T01:11:36.536Z,57.93
2018-06-01T01:14:10.423Z,57.57
2018-06-01T01:16:44.190Z,60.43
2018-06-01T01:19:18.132Z,58.93
2018-06-01T01:21:51.899Z,62.80
2018-06-01T01:24:26.435Z,62.43
2018-06-01T01:27:00.473Z,62.93
2018-06-01T01:29:35.050Z,66.23
2018-06-01T01:32:08.759Z,64.30
2018-06-01T01:34:42.773Z,66.17
2018-06-01T01:37:28.485Z,67.37
2018-06-01T01:40:02.390Z,65.20
2018-06-01T01:42:36.231Z,64.03
2018-06-01T01:45:10.045Z,62.93
2018-06-01T01:47:43.775Z,64.30
2018-06-01T01:50:17.570Z,66.67
2018-06-01T01:52:51.497Z,64.53
2018-06-01T01:55:26.018Z,66.97
2018-06-01T01:58:00.719Z,73.20
2018-06-01T02:00:35.302Z,71.43
2018-06-01T02:03:09.066Z,71.63
2018-06-01T02:05:42.875Z,74.63
2018-06-01T02:08:16.996Z,77.33
2018-06-01T02:10:50.908Z,80.27
2018-06-01T02:13:24.800Z,79.00
2018-06-01T02:15:58.521Z,80.57
2018-06-01T02:18:32.429Z,85.30
2018-06-01T02:21:06.535Z,77.73
2018-06-01T02:23:40.465Z,79.83
2018-06-01T02:26:14.537Z,84.00
2018-06-01T02:28:48.323Z,84.10
2018-06-01T02:31:22.253Z,80.97
2018-06-01T02:33:56.239Z,78.23
2018-06-01T02:36:30.252Z,78.67
2018-06-01T02:39:06.357Z,73.83
2018-06-01T02:41:40.195Z,72.60
2018-06-01T02:44:14.838Z,74.10
2018-06-01T02:46:48.795Z,76.77
2018-06-01T02:49:22.760Z,76.00
2018-06-01T02:51:57.897Z,76.10
2018-06-01T02:54:31.795Z,74.60
2018-06-01T02:57:05.994Z,75.33
2018-06-01T02:59:40.031Z,72.97
2018-06-01T03:02:14.824Z,75.23
2018-06-01T03:04:49.472Z,74.67
2018-06-01T03:07:23.501Z,77.57
2018-06-01T03:09:57.165Z,81.57
2018-06-01T03:12:31.026Z,76.23
2018-06-01T03:15:05.836Z,79.47
2018-06-01T03:17:39.751Z,86.97
2018-06-01T03:20:14.135Z,96.00
2018-06-01T03:22:48.009Z,91.87
2018-06-01T03:25:21.799Z,95.20
2018-06-01T03:27:55.644Z,92.03
2018-06-01T03:30:29.532Z,85.20
2018-06-01T03:33:03.409Z,92.20
2018-06-01T03:35:37.969Z,97.23
2018-06-01T03:38:12.125Z,94.70
2018-06-01T03:40:46.063Z,97.23
2018-06-01T03:43:20.034Z,97.67
2018-06-01T03:45:53.938Z,96.20
2018-06-01T03:48:27.859Z,94.97
2018-06-01T03:51:02.507Z,102.60
2018-06-01T03:53:37.279Z,100.47
2018-06-01T03:56:11.964Z,103.27
2018-06-01T03:58:45.809Z,103.37
2018-06-01T04:01:19.846Z,99.53
2018-06-01T04:03:54.743Z,99.90
2018-06-01T04:06:29.373Z,101.00
2018-06-01T04:09:03.417Z,98.43
2018-06-01T04:11:37.161Z,96.37
2018-06-01T04:14:10.960Z,95.30
2018-06-01T04:16:45.715Z,97.80
2018-06-01T04:19:19.557Z,93.30
2018-06-01T04:21:54.246Z,94.07
2018-06-01T04:24:28.219Z,93.83
2018-06-01T04:27:02.875Z,90.23
2018-06-01T04:29:36.797Z,89.30
2018-06-01T04:32:10.492Z,89.63
2018-06-01T04:34:45.323Z,85.07
2018-06-01T04:37:19.958Z,83.20
2018-06-01T04:39:53.915Z,82.20
2018-06-01T04:42:28.480Z,83.87
2018-06-01T04:45:02.343Z,84.00
2018-06-01T04:47:35.977Z,84.57
2018-06-01T04:50:09.888Z,82.53
2018-06-01T04:52:43.679Z,80.53
2018-06-01T04:55:17.323Z,82.90
2018-06-01T04:57:51.813Z,81.97
2018-06-01T05:00:25.568Z,82.73
2018-06-01T05:02:59.465Z,81.20
2018-06-01T05:05:33.081Z,77.80
2018-06-01T05:08:07.717Z,76.47
2018-06-01T05:10:41.412Z,78.40
2018-06-01T05:13:15.186Z,77.00
2018-06-01T05:15:49.099Z,75.53
2018-06-01T05:18:22.847Z,81.13
2018-06-01T05:20:56.625Z,80.83
2018-06-01T05:23:30.490Z,76.77
2018-06-01T05:26:04.242Z,78.00
2018-06-01T05:28:37.954Z,74.43
2018-06-01T05:31:12.392Z,73.87
2018-06-01T05:33:46.189Z,74.20
2018-06-01T05:36:20.126Z,73.47
2018-06-01T05:38:54.059Z,73.03
2018-06-01T05:41:27.975Z,70.47
2018-06-01T05:44:01.862Z,69.20
2018-06-01T05:46:35.595Z,67.07
2018-06-01T05:49:09.465Z,68.10
2018-06-01T05:51:43.515Z,67.73
2018-06-01T05:54:17.499Z,67.07
2018-06-01T05:56:51.339Z,64.43
2018-06-01T05:59:25.370Z,67.73
2018-06-01T06:01:59.208Z,64.43
2018-06-01T06:04:33.211Z,67.10
2018-06-01T06:07:06.944Z,66.87
2018-06-01T06:09:40.627Z,67.17
2018-06-01T06:12:14.566Z,64.27
2018-06-01T06:14:48.557Z,64.33
2018-06-01T06:17:22.723Z,63.93
2018-06-01T06:19:57.536Z,64.77
2018-06-01T06:22:31.417Z,61.60
2018-06-01T06:25:05.471Z,61.53
2018-06-01T06:27:39.509Z,59.97
2018-06-01T06:30:14.183Z,60.50
2018-06-01T06:32:48.037Z,59.60
2018-06-01T06:35:21.842Z,59.27
2018-06-01T06:37:55.685Z,53.83
2018-06-01T06:40:29.453Z,53.87
2018-06-01T06:43:03.472Z,53.67
2018-06-01T06:45:37.578Z,54.00
2018-06-01T06:48:11.354Z,49.97
2018-06-01T06:50:45.058Z,51.00
2018-06-01T06:53:18.998Z,52.47
2018-06-01T06:55:52.937Z,53.40
2018-06-01T06:58:26.838Z,50.23
2018-06-01T07:01:00.586Z,48.73
2018-06-01T07:03:35.238Z,49.47
2018-06-01T07:06:09.433Z,47.13
2018-06-01T07:08:43.232Z,43.87
2018-06-01T07:11:17.981Z,45.30
2018-06-01T07:13:51.654Z,43.97
2018-06-01T07:16:25.443Z,40.37
2018-06-01T07:18:59.301Z,44.17
2018-06-01T07:21:27.526Z,46.23
2018-06-01T07:23:56.516Z,39.40
2018-06-01T07:26:24.695Z,40.43
2018-06-01T07:28:53.762Z,41.80
2018-06-01T07:31:22.057Z,42.77
2018-06-01T07:33:51.137Z,42.20
2018-06-01T07:36:19.465Z,41.43
2018-06-01T07:38:47.817Z,43.70
2018-06-01T07:41:15.994Z,43.57
2018-06-01T07:43:45.073Z,40.97
2018-06-01T07:46:13.397Z,39.80
2018-06-01T07:48:41.693Z,40.47
2018-06-01T07:51:10.096Z,39.63
2018-06-01T07:53:38.348Z,38.77
2018-06-01T07:56:06.614Z,34.53
2018-06-01T07:58:35.067Z,31.50
2018-06-01T08:01:04.539Z,29.00
2018-06-01T08:03:33.829Z,31.33
2018-06-01T08:06:04.117Z,27.87
2018-06-01T08:08:32.493Z,27.50
2018-06-01T08:11:00.902Z,25.77
2018-06-01T08:13:29.176Z,26.47
2018-06-01T08:15:57.396Z,28.03
2018-06-01T08:18:25.708Z,26.93
2018-06-01T08:20:53.908Z,23.63
2018-06-01T08:23:22.942Z,21.87
2018-06-01T08:25:51.208Z,22.57
2018-06-01T08:28:19.542Z,15.57
2018-06-01T08:30:47.803Z,13.03
2018-06-01T08:33:16.499Z,21.87
2018-06-01T08:35:44.752Z,23.83
2018-06-01T08:38:13.067Z,24.67
2018-06-01T08:43:16.778Z,23.70
2018-06-01T08:45:45.054Z,26.83
2018-06-01T08:48:14.126Z,27.13
2018-06-01T08:50:42.438Z,30.53
2018-06-01T08:53:10.969Z,30.53
2018-06-01T08:55:39.262Z,31.50
2018-06-01T08:58:07.591Z,26.70
2018-06-01T09:00:35.844Z,22.63
2018-06-01T09:03:04.170Z,24.50
2018-06-01T09:05:32.407Z,17.47
2018-06-01T09:08:00.675Z,23.17
2018-06-01T09:10:28.939Z,24.80
2018-06-01T09:12:57.892Z,23.40
2018-06-01T09:15:26.132Z,18.27
2018-06-01T09:17:54.386Z,17.83
2018-06-01T09:20:22.655Z,18.13
2018-06-01T09:22:51.634Z,20.97
2018-06-01T09:25:20.626Z,21.30
2018-06-01T09:27:49.688Z,21.37
2018-06-01T09:30:17.907Z,26.63
2018-06-01T09:32:46.885Z,25.90
2018-06-01T09:35:15.966Z,26.70
2018-06-01T09:37:44.556Z,28.00
2018-06-01T09:40:13.141Z,25.57
2018-06-01T09:42:42.274Z,23.97
2018-06-01T09:45:11.328Z,25.10
2018-06-01T09:47:39.579Z,22.67
2018-06-01T09:50:11.985Z,24.00
2018-06-01T09:52:41.035Z,24.40
2018-06-01T09:55:09.454Z,20.70
2018-06-01T09:57:38.476Z,22.97
2018-06-01T10:00:07.632Z,23.93
2018-06-01T10:02:35.993Z,24.40
2018-06-01T10:05:05.151Z,23.63
2018-06-01T10:07:33.463Z,24.80
2018-06-01T10:10:07.692Z,25.30
2018-06-01T10:12:36.047Z,24.37
2018-06-01T10:15:04.362Z,24.73
2018-06-01T10:17:33.470Z,22.87
2018-06-01T10:20:01.981Z,23.87
2018-06-01T10:22:30.408Z,22.23
2018-06-01T10:24:58.791Z,22.03
2018-06-01T10:27:27.032Z,19.73
2018-06-01T10:29:55.462Z,21.37
2018-06-01T10:32:23.710Z,22.83
2018-06-01T10:34:52.003Z,22.33
2018-06-01T10:37:21.117Z,21.10
2018-06-01T10:39:49.433Z,19.20
2018-06-01T10:42:17.699Z,19.27
2018-06-01T10:44:46.053Z,17.80
2018-06-01T10:47:14.477Z,18.37
2018-06-01T10:49:42.842Z,16.43
2018-06-01T10:52:11.251Z,19.03
2018-06-01T10:54:40.358Z,18.87
2018-06-01T10:57:09.413Z,17.67
2018-06-01T10:59:37.691Z,16.83
2018-06-01T11:02:06.079Z,16.40
2018-06-01T11:04:34.593Z,15.87
2018-06-01T11:07:02.922Z,17.03
2018-06-01T11:09:31.415Z,17.00
2018-06-01T11:11:59.678Z,17.13
2018-06-01T11:14:27.936Z,16.37
2018-06-01T11:16:56.159Z,16.47
2018-06-01T11:19:25.278Z,15.43
2018-06-01T11:21:55.172Z,15.37
2018-06-01T11:24:24.264Z,15.20
2018-06-01T11:26:53.419Z,13.03
2018-06-01T11:29:21.722Z,14.27
2018-06-01T11:31:50.743Z,13.63
2018-06-01T11:34:19.054Z,13.43
2018-06-01T11:36:47.328Z,13.23
2018-06-01T11:39:15.533Z,13.60
2018-06-01T11:41:44.808Z,13.63
2018-06-01T11:44:13.131Z,12.70
2018-06-01T11:46:42.415Z,10.77
2018-06-01T11:49:10.747Z,11.27
2018-06-01T11:51:39.097Z,11.57
2018-06-01T11:54:07.555Z,11.80
2018-06-01T11:56:36.921Z,11.07
2018-06-01T11:59:05.259Z,10.30
2018-06-01T12:01:33.593Z,10.17
2018-06-01T12:04:02.782Z,9.97
2018-06-01T12:06:31.054Z,9.80
2018-06-01T12:08:59.416Z,10.60
2018-06-01T12:11:27.832Z,11.00
2018-06-01T12:13:56.111Z,11.90
2018-06-01T12:16:24.346Z,11.53
2018-06-01T12:18:52.683Z,12.00
2018-06-01T12:21:21.047Z,13.40
2018-06-01T12:23:49.500Z,12.60
2018-06-01T12:26:17.904Z,12.27
2018-06-01T12:28:46.342Z,12.43
2018-06-01T12:31:20.838Z,12.67
2018-06-01T12:33:56.438Z,13.60
2018-06-01T12:36:25.740Z,15.30
2018-06-01T12:38:55.183Z,14.90
2018-06-01T12:41:23.614Z,14.83
2018-06-01T12:43:54.221Z,14.90
2018-06-01T12:46:22.647Z,15.53
2018-06-01T12:48:51.615Z,17.80
2018-06-01T12:51:20.724Z,17.27
2018-06-01T12:53:49.087Z,15.57
2018-06-01T12:56:17.403Z,16.27
2018-06-01T12:58:45.743Z,12.37
2018-06-01T13:01:13.984Z,12.33
2018-06-01T13:03:42.166Z,12.73
2018-06-01T13:06:11.188Z,14.43
2018-06-01T13:08:39.585Z,16.40
2018-06-01T13:11:07.980Z,18.97
2018-06-01T13:13:36.389Z,16.00
2018-06-01T13:16:05.462Z,19.30
2018-06-01T13:18:33.909Z,19.77
2018-06-01T13:21:02.509Z,13.83
2018-06-01T13:23:30.789Z,21.17
2018-06-01T13:25:59.267Z,22.63
2018-06-01T13:28:27.603Z,19.10
2018-06-01T13:30:58.482Z,26.80
2018-06-01T13:33:28.142Z,25.43
2018-06-01T13:35:57.448Z,25.40
2018-06-01T13:38:26.761Z,28.37
2018-06-01T13:41:00.382Z,26.77
2018-06-01T13:43:28.828Z,25.93
2018-06-01T13:45:58.284Z,25.33
2018-06-01T13:48:27.196Z,23.73
2018-06-01T13:50:55.532Z,20.67
2018-06-01T13:53:24.097Z,23.43
2018-06-01T13:55:53.845Z,25.13
2018-06-01T13:58:27.954Z,26.10
2018-06-01T14:00:56.752Z,21.10
2018-06-01T14:03:25.493Z,24.57
2018-06-01T14:06:10.075Z,22.07
2018-06-01T14:08:38.913Z,23.47
2018-06-01T14:11:08.825Z,25.03
2018-06-01T14:13:38.329Z,23.83
2018-06-01T14:16:10.378Z,25.33
2018-06-01T14:18:39.282Z,26.07
2018-06-01T14:21:11.692Z,23.90
2018-06-01T14:23:40.302Z,24.87
2018-06-01T14:26:09.841Z,22.00
2018-06-01T14:28:46.456Z,20.03
2018-06-01T14:31:17.658Z,23.10
2018-06-01T14:33:56.835Z,23.53
2018-06-01T14:36:31.774Z,24.60
2018-06-01T14:39:03.425Z,25.33
2018-06-01T14:41:35.743Z,18.93
2018-06-01T14:44:05.291Z,20.40
2018-06-01T14:46:33.808Z,18.73
2018-06-01T14:49:09.049Z,20.13
2018-06-01T14:51:40.265Z,24.13
2018-06-01T14:54:14.718Z,29.30
2018-06-01T15:01:41.546Z,27.00
2018-06-01T15:23:22.897Z,30.03
2018-06-01T15:28:30.198Z,26.20
2018-06-01T15:31:04.206Z,26.53
2018-06-01T15:37:14.281Z,22.43
2018-06-01T15:39:48.902Z,19.70
2018-06-01T15:42:32.603Z,22.73
2018-06-01T15:45:05.728Z,23.40
2018-06-01T16:08:19.271Z,21.47
2018-06-01T16:31:34.689Z,20.17
2018-06-01T16:37:02.266Z,24.83
2018-06-01T16:45:07.244Z,22.37
2018-06-01T16:50:32.472Z,21.50
2018-06-01T16:58:07.286Z,21.40
2018-06-01T17:01:10.074Z,21.47
2018-06-01T17:04:30.461Z,24.00
2018-06-01T17:07:10.647Z,22.10
2018-06-01T17:34:20.033Z,20.50
2018-06-01T17:37:15.752Z,23.07
2018-06-01T17:39:47.462Z,24.03
2018-06-01T17:42:28.209Z,23.97
2018-06-01T17:48:18.708Z,25.33
2018-06-01T17:50:47.667Z,21.63
2018-06-01T17:53:28.867Z,21.07
2018-06-01T17:59:30.602Z,22.70
2018-06-01T18:52:17.777Z,33.77
2018-06-01T19:24:56.389Z,36.73
2018-06-01T19:27:30.509Z,36.57
2018-06-01T19:30:04.994Z,37.70
2018-06-01T19:32:38.836Z,36.93
2018-06-01T19:35:13.401Z,40.03
2018-06-01T19:37:47.247Z,39.07
2018-06-01T19:40:21.057Z,38.53
2018-06-01T19:42:54.935Z,40.53
2018-06-01T19:45:29.387Z,38.60
2018-06-01T19:48:03.054Z,41.87
2018-06-01T19:50:36.811Z,46.70
2018-06-01T19:53:10.537Z,49.07
2018-06-01T19:55:44.641Z,53.20
2018-06-01T19:58:18.531Z,56.23
2018-06-01T20:00:52.384Z,57.60
2018-06-01T20:03:26.120Z,60.07
2018-06-01T20:06:00.014Z,63.20
2018-06-01T20:08:33.700Z,66.43
2018-06-01T20:11:07.542Z,74.50
2018-06-01T20:13:49.116Z,73.33
2018-06-01T20:16:22.863Z,79.40
2018-06-01T20:18:56.730Z,78.10
2018-06-01T20:21:30.709Z,78.90
2018-06-01T20:24:04.549Z,84.77
2018-06-01T20:26:38.198Z,91.67
2018-06-01T20:29:12.097Z,85.60
2018-06-01T20:31:45.904Z,84.37
2018-06-01T20:34:20.262Z,82.63
2018-06-01T20:36:54.237Z,86.20
2018-06-01T20:39:28.079Z,80.43
2018-06-01T20:42:01.970Z,80.37
2018-06-01T20:44:35.707Z,84.03
2018-06-01T20:47:09.574Z,80.67
2018-06-01T20:49:43.481Z,83.07
2018-06-01T20:52:17.315Z,85.23
2018-06-01T20:54:51.122Z,84.00
2018-06-01T20:57:24.868Z,86.17
2018-06-01T20:59:58.578Z,81.20
2018-06-01T21:02:32.667Z,80.17
2018-06-01T21:05:06.413Z,88.90
2018-06-01T21:07:40.499Z,85.50
2018-06-01T21:10:14.204Z,97.90
2018-06-01T21:12:48.867Z,86.03
2018-06-01T21:15:22.690Z,91.33
2018-06-01T21:17:56.517Z,89.27
2018-06-01T21:20:30.252Z,89.83
2018-06-01T21:23:04.299Z,88.80
2018-06-01T21:25:38.268Z,91.10
2018-06-01T21:28:12.899Z,83.40
2018-06-01T21:30:46.939Z,93.70
2018-06-01T21:33:20.678Z,97.70
2018-06-01T21:35:54.527Z,91.90
2018-06-01T21:38:28.390Z,86.23
2018-06-01T21:41:02.094Z,98.10
2018-06-01T21:43:36.582Z,95.97
2018-06-01T21:46:10.387Z,97.13
2018-06-01T21:48:44.326Z,89.73
2018-06-01T21:51:18.032Z,81.13
2018-06-01T21:53:52.046Z,73.57
2018-06-01T21:56:25.800Z,78.70
2018-06-01T21:58:59.614Z,77.47
2018-06-01T22:01:34.074Z,88.23
2018-06-01T22:04:07.818Z,95.23
2018-06-01T22:06:41.454Z,98.23
2018-06-01T22:09:15.329Z,113.93
2018-06-01T22:11:49.202Z,111.57
2018-06-01T22:14:23.822Z,119.07
2018-06-01T22:16:58.491Z,123.23
2018-06-01T22:19:32.404Z,120.73
